Date,TemperatureHighF,TemperatureAvgF,TemperatureLowF,DewpointHighF,DewpointAvgF,DewpointLowF,HumidityHigh,HumidityAvg,HumidityLow,PressureMaxIn,PressureMinIn,WindSpeedMaxMPH,WindSpeedAvgMPH,GustSpeedMaxMPH,PrecipitationSumIn
2014-1-1,42,33,24,33,27,19,93,80,63,30.42,30.14,5,0,0,0.00
2014-1-2,36,32,29,34,31,28,97,95,93,30.13,29.59,1,0,0,0.01
2014-1-3,28,18,7,27,10,1,96,72,43,30.50,29.62,18,3,24,0.00
2014-1-4,32,18,4,19,11,0,90,74,56,30.54,30.30,5,0,0,0.09
2014-5-16,70,62,21,59,1,-100,96,74,48,29.92,29.81,4,1,0,0.00
2014-5-17,68,64,47,50,-21,-100,94,60,41,30.14,29.92,3,0,0,0.00
2014-5-18,68,63,51,46,-24,-100,76,51,38,30.23,30.15,6,0,0,0.00
2014-5-19,73,67,44,48,-44,-100,94,47,35,30.28,30.15,4,1,0,0.00
2014-5-20,78,73,51,53,-49,-100,92,42,36,30.19,29.99,2,1,0,0.00
2014-5-21,78,73,60,64,-31,-100,94,61,36,29.99,29.87,2,0,0,0.00
2014-5-22,86,78,64,70,-47,-100,97,66,50,29.88,29.74,6,0,0,0.00
2014-5-23,86,76,57,56,-21,-100,81,53,46,30.00,29.86,7,1,13,0.00
2014-5-24,76,71,53,58,-28,-100,84,56,49,30.09,29.99,5,1,0,0.00
2014-5-25,79,75,52,58,-63,-100,95,52,44,30.15,30.07,2,1,0,0.00
2014-5-26,84,80,58,66,-55,-100,96,54,46,30.11,29.96,2,0,0,0.00
2014-5-27,88,84,64,72,-51,-100,96,58,49,29.96,29.82,2,0,0,0.00
2014-5-28,87,82,67,72,-30,-100,97,69,55,30.07,29.82,5,0,13,0.00
2014-5-29,83,65,55,56,-38,-100,95,85,66,30.19,30.08,4,0,0,0.00
2014-5-30,74,64,57,61,-16,-100,97,82,59,30.13,30.04,4,0,0,0.00
2014-5-31,77,72,53,57,-58,-100,96,58,38,30.24,30.08,6,0,12,0.00
2014-6-1,76,75,61,57,-64,-100,77,51,43,30.35,30.23,1,0,0,0.00
2014-6-2,75,66,61,54,-97,-100,76,68,53,30.27,30.05,0,0,0,0.00
2014-6-3,76,70,61,72,-82,-100,94,80,74,30.05,29.83,0,0,0,0.00
2014-6-4,77,76,66,69,-78,-100,97,79,72,29.85,29.70,2,0,0,0.00
2014-6-5,77,75,63,63,-69,-100,93,69,63,29.84,29.57,7,3,12,0.00
2014-6-6,75,70,56,55,-84,-100,94,62,58,29.98,29.83,5,2,13,0.00
2014-6-7,81,73,57,62,-60,-100,95,60,50,30.02,29.93,5,0,0,0.00
2014-6-8,83,78,61,67,-61,-100,96,63,58,29.96,29.83,0,0,0,0.00
2014-6-9,82,78,70,71,-89,-100,93,76,58,29.88,29.83,0,0,0,0.00
2014-6-10,77,76,74,75,-70,-100,96,91,84,29.92,29.84,0,0,0,0.00
2014-6-11,76,72,71,-100,-100,-100,96,95,94,30.00,29.90,0,0,0,0.00
2014-6-12,71,70,70,69,-96,-100,97,97,96,29.99,29.83,0,0,0,0.00
2014-6-13,83,75,70,75,-45,-100,97,89,74,29.83,29.73,1,0,0,0.00
2014-6-14,76,74,71,57,-67,-100,89,76,51,30.09,29.83,5,0,0,0.00
2014-6-15,71,58,52,51,-97,-100,95,85,58,30.17,30.07,0,0,0,0.00
2014-6-16,74,67,52,70,-85,-100,97,90,87,30.12,30.03,0,0,0,0.00
2014-6-17,80,78,70,72,-85,-100,94,82,79,30.08,29.93,0,0,0,0.00
2014-6-18,87,84,74,74,-78,-100,89,69,62,30.00,29.92,2,0,0,0.00
2014-6-19,87,87,87,-100,-100,-100,62,62,62,30.02,29.91,0,0,0,0.00
2014-6-20,87,79,63,63,-57,-100,97,58,48,30.04,29.91,4,0,0,0.00
2014-6-21,79,73,68,66,-34,-100,91,70,48,29.92,29.86,4,0,0,0.00
2014-6-22,81,74,66,67,-15,-100,96,74,58,29.99,29.87,3,0,0,0.00
2014-6-23,81,77,59,69,-47,-100,97,67,57,30.13,30.00,1,0,0,0.00
2014-6-24,84,79,64,72,-14,-100,95,67,57,30.14,29.99,1,0,0,0.00
2014-6-25,86,82,71,78,-10,-100,97,77,71,30.00,29.79,2,0,0,0.00
2014-6-26,87,83,70,73,-15,-100,97,71,53,29.94,29.82,6,0,0,0.00
2014-6-27,83,79,65,74,-2,-100,96,74,66,30.17,29.95,6,1,14,0.00
2014-6-28,77,65,60,-100,-100,-100,96,89,74,30.26,30.17,0,0,0,0.00
2014-6-29,82,73,60,66,-59,-100,96,71,53,30.23,30.10,0,0,0,0.00
2014-6-30,80,76,69,69,-86,-100,93,73,55,30.10,29.92,0,0,0,0.00
2014-7-1,88,80,71,77,-86,-100,93,76,68,29.96,29.82,0,0,0,0.00
2014-7-2,88,80,74,74,-92,-100,96,85,68,29.92,29.80,0,0,0,0.00
2014-7-3,88,82,72,79,-44,-100,97,83,68,29.95,29.86,1,0,0,0.00
2014-7-4,88,88,88,-100,-100,-100,74,74,74,30.14,29.93,0,0,0,0.00
2014-7-5,88,80,55,58,-55,-100,95,57,39,30.24,30.14,2,0,0,0.00
2014-7-6,86,76,64,67,-82,-100,89,62,43,30.14,29.94,0,0,0,0.00
2014-7-7,81,75,73,66,-96,-100,81,74,59,29.93,29.78,0,0,0,0.00
2014-7-8,80,78,73,72,-85,-100,81,78,76,29.87,29.69,0,0,0,0.00
2014-7-9,80,74,71,70,-96,-100,97,90,76,29.95,29.80,0,0,0,0.00
2014-7-10,71,71,71,70,3,70,97,97,97,30.09,29.95,1,0,0,0.00
2014-7-11,83,78,66,73,19,64,97,82,70,30.18,30.10,2,1,0,0.00
2014-7-12,83,75,69,72,6,68,97,89,71,30.20,30.09,1,0,0,0.00
2014-7-13,88,79,72,74,5,72,97,85,72,30.10,29.88,0,0,0,0.00
2014-7-14,88,80,72,75,8,72,97,88,72,29.94,29.77,0,0,0,0.00
2014-7-15,77,76,74,74,3,74,98,96,94,29.82,29.71,0,0,0,0.00
2014-7-16,78,76,68,68,13,63,97,75,57,29.91,29.75,2,0,0,0.00
2014-7-17,79,77,61,62,13,59,93,60,53,30.11,29.91,8,1,0,0.00
2014-7-18,79,70,60,64,4,59,97,80,57,30.22,30.11,1,0,0,0.00
2014-7-19,79,72,67,67,3,66,94,78,59,30.19,30.11,0,0,0,0.00
2014-7-20,81,77,70,71,14,67,89,73,59,30.11,30.05,1,0,0,0.00
2014-7-21,79,77,68,69,7,67,95,79,77,30.18,30.10,0,0,0,0.00
2014-7-22,84,80,70,74,21,69,97,77,69,30.18,30.05,0,0,0,0.00
2014-7-23,92,86,72,79,32,71,97,69,61,30.04,29.78,1,0,0,0.00
2014-7-24,90,78,71,69,13,67,93,75,61,29.92,29.81,0,0,0,0.00
2014-7-25,73,69,58,58,5,56,96,74,70,30.05,29.92,1,0,0,0.00
2014-7-26,82,76,68,71,13,67,92,72,68,29.99,29.87,2,0,0,0.00
2014-7-27,85,82,72,76,24,70,96,74,68,29.86,29.61,2,0,0,0.00
2014-7-28,84,80,72,73,6,70,97,74,73,29.79,29.56,1,1,0,0.00
2014-7-29,79,69,60,58,5,56,94,75,73,29.99,29.79,1,0,0,0.00
2014-7-30,65,65,65,-100,0,200,75,75,75,30.06,29.99,0,0,0,0.00
2014-7-31,84,76,61,68,20,60,96,63,49,30.10,30.04,0,0,0,0.00
2014-8-1,84,77,67,72,49,64,94,74,49,30.18,30.11,1,0,0,0.00
2014-8-2,80,71,64,70,67,63,96,88,71,30.15,30.05,6,1,0,0.00
2014-8-3,80,73,67,72,69,65,97,90,76,30.07,29.99,4,0,0,0.00
2014-8-4,84,72,64,72,67,63,97,86,64,30.08,30.02,1,0,0,0.00
2014-8-5,66,66,65,64,64,64,95,95,95,30.05,30.05,0,0,0,0.00
2014-8-7,71,65,62,64,62,60,93,88,80,30.02,29.97,0,0,0,0.00
2014-8-8,83,69,58,66,61,56,96,78,47,30.11,30.03,2,0,0,0.00
2014-8-9,85,73,61,70,66,59,97,81,57,30.10,30.05,1,0,0,0.00
2014-8-10,85,73,63,72,65,60,97,78,45,30.12,30.05,2,0,0,0.00
2014-8-11,82,70,58,70,65,57,97,83,61,30.10,30.00,4,0,0,0.00
2014-8-12,74,72,69,73,71,67,98,97,94,29.99,29.74,3,0,16,0.00
2014-8-13,82,74,65,72,66,58,98,78,56,29.88,29.71,7,1,14,0.00
2014-8-14,82,68,55,64,59,53,96,74,47,29.93,29.82,6,0,0,0.00
2014-8-15,78,65,52,60,55,50,96,73,41,30.00,29.91,4,0,0,0.00
2014-8-16,82,68,56,62,58,55,96,74,45,30.01,29.92,0,0,0,0.00
2014-8-17,88,74,61,72,66,58,94,80,56,29.91,29.83,1,0,0,0.00
2014-8-18,81,72,63,70,65,61,96,82,62,29.92,29.78,1,0,0,0.00
2014-8-19,84,73,67,73,68,65,96,86,64,29.90,29.78,5,0,0,0.00
2014-8-20,84,72,62,72,66,61,97,85,54,30.00,29.89,3,0,0,0.00
2014-8-21,87,74,64,77,70,63,98,88,66,30.03,29.95,2,0,0,0.00
2014-8-22,79,73,68,73,55,67,96,90,81,29.99,29.92,4,0,0,0.00
2014-8-23,74,69,67,70,60,65,95,92,84,30.07,29.96,6,0,0,0.00
2014-8-24,67,67,67,-100,0,200,93,93,93,30.13,30.06,0,0,0,0.00
2014-8-25,80,71,67,66,19,63,93,83,55,30.17,30.11,5,0,0,0.00
2014-8-26,85,76,70,66,3,65,86,73,52,30.15,30.06,0,0,0,0.00
2014-8-27,85,85,85,-100,0,200,52,52,52,30.07,29.88,0,0,0,0.00
2014-8-28,85,84,82,67,3,66,59,53,52,30.06,29.85,1,0,0,0.00
2014-8-29,82,78,73,60,2,59,61,57,55,30.20,30.07,3,0,0,0.00
2014-8-30,81,78,75,72,4,71,74,65,59,30.22,30.09,1,0,0,0.00
2014-8-31,91,84,81,76,20,73,73,70,58,30.11,29.95,1,0,0,0.00
2014-9-1,85,85,85,-100,0,200,71,71,71,30.02,29.92,0,0,0,0.00
2014-9-2,85,85,85,-100,0,200,71,71,71,29.95,29.83,0,0,0,0.00
2014-9-3,85,83,81,68,1,68,71,68,65,30.12,29.88,0,0,0,0.00
2014-9-4,82,82,82,-100,0,200,65,65,65,30.16,30.08,0,0,0,0.00
2014-9-5,82,82,82,-100,0,200,65,65,65,30.15,30.00,0,0,0,0.00
2014-9-6,82,82,82,-100,0,200,65,65,65,30.01,29.83,0,0,0,0.00
2014-9-7,82,82,82,-100,0,200,65,65,65,30.15,29.94,0,0,0,0.00
2014-9-8,82,82,82,-100,0,200,65,65,65,30.22,30.14,0,0,0,0.00
2014-9-9,82,82,82,-100,0,200,65,65,65,30.18,30.07,0,0,0,0.00
2014-9-10,82,80,79,68,1,68,71,68,65,30.11,29.98,0,0,0,0.00
2014-9-11,79,79,79,-100,0,200,71,71,71,29.98,29.83,0,0,0,0.00
2014-9-12,79,76,71,62,19,59,71,69,61,30.12,29.95,2,0,0,0.00
2014-9-13,71,69,68,-100,0,200,90,82,71,30.19,30.08,0,0,0,0.00
2014-9-14,68,67,67,53,2,53,90,75,60,30.30,30.18,0,0,0,0.00
2014-9-15,69,68,67,60,1,60,71,66,61,30.23,30.03,4,2,0,0.00
2014-9-16,69,69,69,-100,0,200,71,71,71,30.02,29.96,4,4,0,0.00
2014-9-17,69,69,69,-100,0,200,71,71,71,30.05,29.94,4,4,0,0.00
2014-9-18,69,69,69,-100,0,200,71,71,71,30.09,29.94,4,4,0,0.00
2014-9-19,69,69,69,-100,0,200,71,71,71,30.29,30.09,4,4,0,0.00
2014-9-20,69,69,69,-100,0,200,71,71,71,30.27,30.02,4,4,0,0.00
2014-9-21,69,69,69,-100,0,200,71,71,71,30.02,29.62,4,4,0,0.00
2014-9-22,70,70,69,54,4,53,71,63,55,30.21,29.73,4,3,0,0.00
2014-9-23,70,70,70,-100,0,200,55,55,55,30.36,30.20,2,2,0,0.00
2014-9-24,70,70,70,-100,0,200,55,55,55,30.44,30.34,2,2,0,0.00
2014-9-25,70,70,70,-100,0,200,55,55,55,30.33,30.20,2,2,0,0.00
2014-9-26,70,70,70,-100,0,200,55,55,55,30.23,30.16,2,2,0,0.00
2014-9-27,80,75,70,63,3,62,60,54,52,30.22,30.15,2,1,0,0.00
2014-9-28,80,80,80,-100,0,200,52,52,52,30.18,30.03,0,0,0,0.00
2014-9-29,80,61,60,59,1,59,96,94,52,30.02,29.90,0,0,0,0.00
2014-9-30,60,60,60,-100,0,200,96,96,96,29.93,29.84,0,0,0,0.00
2014-10-1,60,60,60,-100,0,200,96,96,96,30.05,29.92,0,0,0,0.00
2014-10-2,60,60,60,-100,0,200,96,96,96,30.12,30.05,0,0,0,0.00
2014-10-3,60,60,60,-100,0,200,96,96,96,30.09,29.70,0,0,0,0.00
2014-10-4,60,60,60,-100,0,200,96,96,96,29.81,29.58,0,0,0,0.00
2014-10-5,60,59,58,41,1,41,96,73,53,29.96,29.81,5,3,0,0.00
2014-10-6,58,58,58,-100,0,200,53,53,53,30.02,29.92,5,5,0,0.00
2014-10-7,58,58,58,-100,0,200,53,53,53,30.04,29.87,5,5,0,0.00
2014-10-8,73,65,58,58,1,58,59,55,53,30.00,29.83,5,3,0,0.00
2014-10-9,73,66,48,51,1,51,97,61,57,30.11,29.99,0,0,0,0.00
2014-10-10,65,65,54,-100,0,200,95,59,58,30.11,30.04,0,0,0,0.00
2014-10-11,54,54,54,-100,0,200,95,95,95,30.15,29.97,0,0,0,0.00
2014-10-12,54,54,54,-100,0,200,95,95,95,30.27,30.15,0,0,0,0.00
2014-10-13,54,54,54,-100,0,200,95,95,95,30.27,30.17,0,0,0,0.00
2014-10-14,75,64,54,69,1,69,95,89,82,30.17,29.96,0,0,0,0.00
2014-10-15,75,75,75,-100,0,200,82,82,82,29.96,29.73,0,0,0,0.00
2014-10-16,75,75,75,-100,0,200,82,82,82,29.74,29.70,0,0,0,0.00
2014-10-17,75,75,75,-100,0,200,82,82,82,29.80,29.66,0,0,0,0.00
2014-10-18,75,71,68,-100,0,200,82,69,57,29.84,29.60,0,0,0,0.00
2014-10-19,68,58,39,38,21,35,91,61,43,30.10,29.83,7,1,16,0.00
2014-10-20,66,49,34,50,43,33,96,79,54,30.13,29.92,4,0,0,0.00
2014-10-21,68,56,46,56,51,45,96,84,57,29.91,29.78,2,0,0,0.00
2014-10-22,54,53,52,52,51,47,96,93,81,29.91,29.83,6,1,14,0.00
2014-10-23,61,56,52,51,48,45,88,75,64,29.88,29.80,6,1,21,0.00
2014-10-24,67,55,46,50,45,39,88,69,44,29.94,29.85,6,0,12,0.00
2014-10-25,71,54,40,51,44,38,96,71,47,29.94,29.68,2,0,0,0.00
2014-10-26,68,56,46,47,41,36,91,60,33,29.91,29.64,7,1,22,0.01
2014-10-27,69,51,36,47,40,34,95,71,33,30.08,29.92,1,0,0,0.01
2014-10-28,81,63,48,60,53,44,87,71,46,30.02,29.90,2,0,0,0.00
2014-10-29,69,59,45,61,54,44,95,85,60,29.97,29.87,8,0,0,0.00
2014-10-30,59,48,39,47,42,38,97,81,54,30.05,29.97,6,0,0,0.00
2014-10-31,55,46,40,43,40,37,95,80,52,30.01,29.81,2,0,0,0.00
2014-11-1,50,47,41,45,41,34,93,78,64,29.87,29.73,11,1,19,0.00
2014-11-2,50,44,36,34,29,22,73,56,37,30.20,29.86,15,3,24,0.00
2014-11-3,59,46,35,32,26,23,68,50,28,30.30,30.19,4,0,0,0.00
2014-11-4,43,43,43,-100,0,200,66,66,66,30.21,30.03,0,0,0,0.00
2014-11-5,66,56,43,50,6,45,66,59,52,30.17,30.05,0,0,0,0.00
2014-11-6,66,64,60,57,2,56,86,68,55,30.10,29.63,0,0,0,0.00
2014-11-7,62,57,54,43,2,42,83,72,65,30.04,29.68,3,2,18,0.00
2014-11-8,54,51,42,32,8,30,67,56,47,30.07,29.90,3,1,0,0.00
2014-11-9,58,54,51,41,10,39,63,51,49,30.02,29.89,1,0,0,0.00
2014-11-10,61,58,52,47,11,42,82,55,51,30.16,30.02,2,0,0,0.00
2014-11-11,70,64,60,60,13,54,82,66,54,30.08,29.86,2,0,0,0.00
2014-11-12,67,64,60,58,12,41,81,61,48,30.10,29.84,9,1,18,0.00
2014-11-13,60,52,45,30,1,30,57,53,49,30.14,30.03,0,0,0,0.00
2014-11-14,45,45,45,-100,0,200,57,57,57,30.27,30.04,0,0,0,0.00
2014-11-15,45,43,37,25,6,23,60,51,44,30.41,30.27,13,1,13,0.00
2014-11-16,44,43,43,28,1,28,53,49,44,30.36,30.02,1,0,0,0.00
2014-11-17,44,44,44,-100,0,200,53,53,53,30.00,29.53,0,0,0,0.00
2014-11-18,44,36,29,12,2,8,53,45,37,30.25,29.75,6,1,19,0.00
2014-11-19,34,32,27,14,4,10,50,41,38,30.34,30.03,1,0,0,0.00
2014-11-20,52,44,34,29,6,25,54,41,39,30.08,29.86,5,0,0,0.00
2014-11-21,52,40,31,13,0,13,47,44,39,30.53,30.09,9,5,0,0.00
2014-12-17,31,31,31,-100,0,200,47,47,47,30.02,30.00,9,9,0,0.00